• Join FlightAware (Why Join?)
  • Login
  • US Flag 
05:49PM EDT


 

Airport Tracker/Info


-or-


 

Live Flight TrackerFlight Track Log ✈ THU850 ✈ 12-Jul-2013 ✈ CYHD - CYQT

Flight Track Log - Related Links

Times and Time Zones

All times are in EDT time to prevent confusion due to time zone crossing. See the THU850 flight status page for this flight to view local times or setup timezone preferences in your user account.

Time Position Orientation Groundspeed Altitude Reporting Facility
EDT Latitude Longitude Course Direction KTS MPH feet Rate Location/Type
05:28PM 49.8000 -92.6833 129° Southeast 150 173 2,100  Level Winnipeg Center
05:29PM 49.7833 -92.6167 111° Southeast 180 207 4,100 1,860 Climbing Winnipeg Center
05:30PM 49.7333 -92.5333 133° Southeast 190 219 5,900 1,800 Climbing Winnipeg Center
05:31PM 49.7167 -92.4667 111° Southeast 190 219 7,700 1,740 Climbing Winnipeg Center
05:32PM 49.6833 -92.4167 136° Southeast 200 230 9,400 1,620 Climbing Winnipeg Center
05:33PM 49.6500 -92.3167 117° Southeast 210 242 11,000 1,500 Climbing Winnipeg Center
05:34PM 49.6333 -92.2333 107° East 210 242 12,400 1,320 Climbing Winnipeg Center
05:35PM 49.6000 -92.1667 128° Southeast 220 253 13,700 1,260 Climbing Winnipeg Center
05:36PM 49.5500 -92.0833 133° Southeast 230 265 15,000 1,080 Climbing Winnipeg Center
05:37PM 49.5167 -91.9833 117° Southeast 230 265 15,900 1,020 Climbing Winnipeg Center
05:38PM 49.4833 -91.9167 128° Southeast 240 276 17,100 1,080 Climbing Winnipeg Center
05:39PM 49.4500 -91.8167 117° Southeast 250 288 18,100 900 Climbing Winnipeg Center
05:40PM 49.4000 -91.7167 128° Southeast 260 299 18,900 840 Climbing Winnipeg Center
05:41PM 49.3667 -91.6500 128° Southeast 260 299 19,800 840 Climbing Winnipeg Center
05:42PM 49.3333 -91.5500 117° Southeast 260 299 20,600 600 Climbing Winnipeg Center
05:43PM 49.2833 -91.4500 127° Southeast 260 299 21,000 180 Climbing Winnipeg Center
05:44PM 49.2500 -91.3500 117° Southeast 280 322 21,000  Level Winnipeg Center
05:45PM 49.2000 -91.2333 123° Southeast 300 345 21,000  Level Winnipeg Center
05:46PM 49.1500 -91.1333 127° Southeast 310 357 21,000  Level Winnipeg Center
05:47PM 49.1167 -91.0167 114° Southeast 310 357 21,100  Climbing Winnipeg Center
05:48PM 49.0667 -90.9167 127° Southeast 310 357 21,100 -60 Level Winnipeg Center
05:49PM 49.0167 -90.7833 120° Southeast 310 357 21,000 -60 Descending Winnipeg Center
05:50PM 48.9667 -90.6667 123° Southeast 320 368 21,000  Level Winnipeg Center
05:51PM 48.9333 -90.5667 117° Southeast 310 357 21,000  Level Winnipeg Center
05:52PM 48.8667 -90.4500 131° Southeast 310 357 21,000  Level Winnipeg Center
05:53PM 48.8333 -90.3500 117° Southeast 300 345 21,100 -60 Climbing Winnipeg Center
05:54PM 48.7667 -90.2333 131° Southeast 300 345 20,900 -900 Descending Winnipeg Center
05:55PM 48.7333 -90.1333 117° Southeast 310 357 19,400 -1,740 Descending Winnipeg Center
05:56PM 48.6833 -90.0167 123° Southeast 350 403 17,500 -1,860 Descending Winnipeg Center
05:57PM 48.6167 -89.9000 131° Southeast 350 403 15,700 -1,860 Descending Winnipeg Center
05:58PM 48.6000 -89.7500 99° East 330 380 13,800 -2,040 Descending Winnipeg Center
05:59PM 48.6000 -89.6333 90° East 310 357 11,700 -1,980 Descending Winnipeg Center
06:00PM 48.5833 -89.5000 101° East 300 345 9,900 -1,680 Descending Winnipeg Center
06:01PM 48.5833 -89.3833 90° East 300 345 8,400 -1,620 Descending Winnipeg Center
06:02PM 48.5500 -89.2500 111° Southeast 300 345 6,700 -1,800 Descending Winnipeg Center
06:03PM 48.5333 -89.1500 104° East 250 288 4,800 -1,800 Descending Winnipeg Center
06:04PM 48.4833 -89.1333 168° South 160 184 3,200 -900 Descending Winnipeg Center
06:05PM 48.4500 -89.1667 214° Southwest 150 173 3,000 -180 Descending Winnipeg Center
06:06PM 48.4167 -89.1667 180° South 130 150 2,900 -600 Descending Winnipeg Center
06:07PM 48.3833 -89.2000 214° Southwest 120 138 1,900 -960 Descending Winnipeg Center
06:08PM 48.3500 -89.2333 214° Southwest 120 138 1,000 -660 Descending Winnipeg Center
06:09PM 48.3667 -89.2833 297° West 120 138 600 -420 Descending Winnipeg Center